Airport View

Enter AWOS ICAO identifier for current METAR.

ex. KFNL

KOLV 041355Z AUTO 11003KT 10SM FEW100 28/23 A2995 RMK A01

4 Jul 2020 13:58

Frequency: 119.925

Phone: 662-893-5906

Other Area AWOS: KMEM - KNQA - KFYE - KAWM

TAF KMEM 041135Z 0412/0518 08005KT P6SM FEW150 FEW250 FM042000 05005KT P6SM VCSH FEW050 SCT250 FM050100 07005KT P6SM SCT250 FM050800 10005KT P6SM SCT250